This is the latest recevied weather packets stored in our database for station/object EA1RCG-11. If no packets are shown the sender has not sent any weather packets the latest 10 day(s).
| Time | Temp. | Humidity | Pressure | Rain* | Wind** | Luminosity | Snow |
|---|---|---|---|---|---|---|---|
| 1787701035 | 20° C | 62% | 977.6 hPa | - | - | - | - |
| 1787699235 | 20° C | 62% | 977.8 hPa | - | - | - | - |
| 1787697435 | 20.56° C | 62% | 978.1 hPa | - | - | - | - |
| 1787695635 | 20.56° C | 62% | 978.5 hPa | - | - | - | - |
| 1787693835 | 20.56° C | 61% | 978.7 hPa | - | - | - | - |
| 1787692035 | 20.56° C | 62% | 978.8 hPa | - | - | - | - |
| 1787690235 | 20.56° C | 62% | 978.7 hPa | - | - | - | - |
| 1787688435 | 21.11° C | 62% | 978.4 hPa | - | - | - | - |
| 1787686634 | 21.11° C | 61% | 978.3 hPa | - | - | - | - |
| 1787684834 | 21.11° C | 61% | 978.1 hPa | - | - | - | - |
| 1787683034 | 21.67° C | 60% | 978 hPa | - | - | - | - |
| 1787681234 | 22.22° C | 59% | 977.9 hPa | - | - | - | - |
| 1787679434 | 22.78° C | 59% | 977.8 hPa | - | - | - | - |
| 1787677634 | 23.89° C | 57% | 977.6 hPa | - | - | - | - |
| 1787675834 | 23.89° C | 57% | 977.3 hPa | - | - | - | - |
| 1787674034 | 23.89° C | 57% | 977.2 hPa | - | - | - | - |
| 1787672234 | 25° C | 56% | 977.1 hPa | - | - | - | - |
| 1787670433 | 25° C | 56% | 977 hPa | - | - | - | - |
| 1787668633 | 26.67° C | 53% | 977.1 hPa | - | - | - | - |
| 1787666833 | 25.56° C | 55% | 977.4 hPa | - | - | - | - |
| 1787665033 | 26.67° C | 53% | 977.4 hPa | - | - | - | - |
| 1787663233 | 27.78° C | 51% | 977.4 hPa | - | - | - | - |
| 1787661433 | 28.89° C | 49% | 977.6 hPa | - | - | - | - |
| 1787659633 | 28.89° C | 49% | 977.8 hPa | - | - | - | - |
| 1787657833 | 25.56° C | 53% | 978.1 hPa | - | - | - | - |
* Rain since midnight (hover to see other rain measurements)
** Current wind speed in m/s (hover to see current wind gust speed)